Airfield :
LOGIN :

Register | Disclaimer

   EN    FR    IT 

 










Legend :    VFR   Marginal VFR   IFR   Intensive IFR   Very Intensive IFR
Visi :
Ceiling :
>= 8 km
>= 3000ft
5 to 8 km
1000 to 3000 ft
1500m to 5 km
500 to 1000 ft
800 to 1500m
200 to 500 ft
< 800m
< 200 ft
Symbols :   Thunderstorms  Fog  Heavy snow  Heavy precipitations  Wind > 20 kt
SIGMETs :     Misc.  Thunderstorms  Icing  Turbulence  Mountain Waves  Volcanic Ashes







- Airport Elevation : 200 ft


EBBL - Klein Brogel AB

CURRENT METAR :
  • 231125Z 21017G27KT 9999 BKN011 BKN018 09/07 Q0995 GRN GRN TEMPO YLO

EXPIRED METARs :
  • 231055Z 22016KT 4500 -DZ BKN007 08/08 Q0997 GRN GRN TEMPO YLO
  • 231044Z 22017KT 4500 -DZ BKN007 08/08 Q0997 GRN GRN TEMPO YLO
  • 231025Z 21016KT 2000 -DZ BKN007 08/08 Q0997 YLO GRN TEMPO YLO
  • 231013Z 22016KT 2500 -DZ BKN008 08/07 Q0998 YLO GRN TEMPO YLO
  • 230955Z 22016KT 4500 -DZ BKN008 08/08 Q0998 GRN GRN TEMPO YLO
  • 230925Z 22016KT 2000 -DZ BKN008 08/07 Q0999 YLO GRN TEMPO YLO
  • 230855Z 22019KT 9999 BKN011 09/07 Q0999 GRN GRN TEMPO YLO

TAF TAF EBBL
Valid from the 23 at 10:00 until the 23 at 19:00 UTC


230841Z 2310/2319 26020G30KT 8000 SCT007 BKN015
TEMPO 2310/2315 4000 DZ -RA SCT005 BKN010
PROB30
TEMPO 2311/2315
BECMG 2315/2317 9999 SCT020
No reported NOTAMs for that airfield.
1 SIGMET reported for the Brussels FIR (EBBU) :
 
Severe turbulence
EBBU SIGMET 02 VALID 230800/231200 EBBR
EBBU BRUSSELS FIR SEV TURB FCST NW OF LINE N5045 E00539 - N5016 E00414 SFC/FL050 MOV E 25KT INTSF=



MET'MAP, your aeronautical weather chart ! - Copyright ORBIFLY December 2007 - Disclaimer

ORBIFLY MET'MAP TEAM :

Programming & Development : Alexandra Zaïnal
Concept & Development : Baudouin d'Aumeries
Co-Development & Prog : Marc-Olivier Méhu
Technical & hardware support : Manuel Goepfert

Contact : metmap@orbifly.com




SOURCES & CREDITS :

   NOAA